Time;durP1;ratioP1;P1;durP2;ratioP2;P2;SDS_P1;SDS_P2;PMS_P1;PMS_P2;Temp;Humidity;BMP_temperature;BMP_pressure;BME280_temperature;BME280_humidity;BME280_pressure;Samples;Min_cycle;Max_cycle;Signal;HPM_P1;HPM_P2
2021/12/14 00:00:39;;;;;;;37.43;23.80;;;;;;;8.49;91.61;102594.69;5033169;28;20189;-77
2021/12/14 00:03:06;;;;;;;36.20;23.50;;;;;;;8.51;92.01;102589.66;5033178;28;20209;-76
2021/12/14 00:05:33;;;;;;;36.60;24.03;;;;;;;8.49;91.96;102594.69;5033194;28;20652;-76
2021/12/14 00:08:01;;;;;;;36.87;23.40;;;;;;;8.45;91.77;102594.44;5032884;28;20206;-76
2021/12/14 00:13:20;;;;;;;37.83;24.03;;;;;;;8.45;92.11;102599.53;5033148;28;20563;-76
2021/12/14 00:15:46;;;;;;;38.23;23.23;;;;;;;8.43;91.57;102606.25;5033138;28;20175;-76
2021/12/14 00:18:13;;;;;;;41.47;24.17;;;;;;;8.42;92.38;102600.25;5033820;28;20197;-76
2021/12/14 00:20:50;;;;;;;36.30;23.47;;;;;;;8.42;91.64;102592.59;5034020;28;20328;-76
2021/12/14 00:26:05;;;;;;;34.20;20.93;;;;;;;8.46;91.24;102586.88;5032868;28;20186;-76
2021/12/14 00:28:32;;;;;;;30.97;20.23;;;;;;;8.49;90.76;102587.03;5032681;28;20183;-76
2021/12/14 00:31:02;;;;;;;30.87;20.63;;;;;;;8.49;89.92;102573.38;5033789;28;20255;-76
2021/12/14 00:33:31;;;;;;;28.60;19.20;;;;;;;8.52;89.67;102563.34;5032589;28;20206;-76
2021/12/14 00:35:58;;;;;;;28.43;19.43;;;;;;;8.54;89.37;102561.75;5032720;28;20325;-76
2021/12/14 00:38:25;;;;;;;30.50;20.60;;;;;;;8.54;89.68;102572.84;5031184;28;20185;-76
2021/12/14 00:40:54;;;;;;;27.67;19.67;;;;;;;8.53;89.34;102567.66;5032568;28;20194;-76
2021/12/14 00:43:20;;;;;;;27.67;18.37;;;;;;;8.56;89.13;102572.91;5032763;28;20269;-76
2021/12/14 00:45:46;;;;;;;25.63;18.57;;;;;;;8.55;89.38;102566.94;5031287;28;20229;-76
2021/12/14 00:48:14;;;;;;;28.97;19.43;;;;;;;8.54;89.61;102562.66;5031013;28;20240;-76
2021/12/14 00:50:43;;;;;;;26.40;18.70;;;;;;;8.55;89.23;102564.41;5035983;28;20240;-76
2021/12/14 00:53:09;;;;;;;25.23;18.47;;;;;;;8.56;88.81;102563.59;5052275;28;20216;-76
2021/12/14 00:55:40;;;;;;;27.00;18.80;;;;;;;8.59;88.36;102571.44;5050980;28;20197;-76
2021/12/14 00:58:06;;;;;;;27.20;17.97;;;;;;;8.58;89.17;102571.34;5052124;28;20174;-76
2021/12/14 01:00:45;;;;;;;27.03;18.73;;;;;;;8.59;88.87;102575.66;5045427;28;20687;-76
2021/12/14 01:03:11;;;;;;;28.10;19.17;;;;;;;8.58;88.82;102576.44;5030794;28;20683;-76
2021/12/14 01:05:40;;;;;;;27.00;18.67;;;;;;;8.56;88.73;102572.91;5030747;28;20273;-76
2021/12/14 01:08:11;;;;;;;25.80;18.47;;;;;;;8.57;89.29;102575.56;5030570;28;20261;-76
2021/12/14 01:10:55;;;;;;;24.07;18.23;;;;;;;8.57;88.44;102572.16;5034585;28;20217;-76
2021/12/14 01:13:25;;;;;;;25.37;18.67;;;;;;;8.57;89.48;102574.69;5048879;28;20201;-76
2021/12/14 01:16:18;;;;;;;24.77;17.60;;;;;;;8.56;88.10;102578.91;5033287;28;20252;-76
2021/12/14 01:18:50;;;;;;;28.77;18.80;;;;;;;8.56;88.13;102581.47;5049733;28;20235;-76
2021/12/14 01:24:36;;;;;;;25.53;17.77;;;;;;;8.57;88.08;102587.47;5050224;28;20220;-76
2021/12/14 01:27:05;;;;;;;27.43;18.80;;;;;;;8.58;88.87;102590.09;5043860;28;20182;-76
2021/12/14 01:29:31;;;;;;;25.73;17.93;;;;;;;8.58;88.31;102579.91;5030032;28;20292;-76
2021/12/14 01:32:00;;;;;;;30.63;17.73;;;;;;;8.57;88.00;102583.22;5030135;28;20228;-76
2021/12/14 01:34:30;;;;;;;25.27;18.80;;;;;;;8.58;87.78;102585.00;5030163;28;20573;-76
2021/12/14 01:37:00;;;;;;;24.57;17.63;;;;;;;8.58;88.29;102572.25;5031297;28;20323;-76
2021/12/14 01:42:22;;;;;;;29.93;17.80;;;;;;;8.56;88.26;102563.59;5030131;28;20254;-76
2021/12/14 01:45:09;;;;;;;26.93;17.97;;;;;;;8.59;88.18;102562.88;5030172;28;20598;-76
2021/12/14 01:47:44;;;;;;;25.93;16.53;;;;;;;8.59;87.20;102565.44;5031309;28;20170;-76
2021/12/14 01:50:19;;;;;;;24.60;17.77;;;;;;;8.59;88.41;102557.78;5031212;28;20750;-76
2021/12/14 01:53:06;;;;;;;24.87;17.77;;;;;;;8.58;88.00;102553.47;5030127;28;20213;-76
2021/12/14 01:55:36;;;;;;;24.57;17.30;;;;;;;8.58;87.49;102554.38;5036910;28;20674;-76
2021/12/14 01:58:05;;;;;;;23.47;17.93;;;;;;;8.56;87.88;102552.50;5050888;28;20186;-76
2021/12/14 02:00:37;;;;;;;22.43;17.37;;;;;;;8.56;88.05;102555.94;5049784;28;20189;-76
2021/12/14 02:03:07;;;;;;;24.70;17.50;;;;;;;8.55;88.35;102559.28;5050884;28;20202;-76
2021/12/14 02:05:38;;;;;;;25.93;17.13;;;;;;;8.54;87.72;102552.44;5043999;28;20218;-76
2021/12/14 02:08:14;;;;;;;24.63;17.07;;;;;;;8.54;88.23;102554.09;5030798;28;20200;-76
2021/12/14 02:10:42;;;;;;;25.40;16.83;;;;;;;8.55;88.24;102545.63;5029523;28;20218;-76
2021/12/14 02:13:07;;;;;;;25.00;16.93;;;;;;;8.53;88.25;102540.44;5030438;28;20688;-76
2021/12/14 02:15:40;;;;;;;22.00;16.47;;;;;;;8.55;87.57;102543.97;5030864;28;20282;-76
2021/12/14 02:18:16;;;;;;;23.57;17.70;;;;;;;8.53;88.16;102532.78;5029252;28;20277;-76
2021/12/14 02:20:58;;;;;;;23.17;17.03;;;;;;;8.53;87.38;102519.16;5029521;28;20261;-76
2021/12/14 02:23:25;;;;;;;25.50;17.30;;;;;;;8.59;87.30;102510.16;5030231;28;20263;-76
2021/12/14 02:25:54;;;;;;;22.07;16.20;;;;;;;8.59;86.42;102501.59;5062038;28;20244;-76
2021/12/14 02:28:22;;;;;;;23.27;16.27;;;;;;;8.56;87.73;102507.44;5029046;28;20202;-76
2021/12/14 02:30:51;;;;;;;20.77;16.20;;;;;;;8.58;87.35;102497.31;5028641;28;20242;-76
2021/12/14 02:33:24;;;;;;;22.87;17.10;;;;;;;8.57;87.46;102495.56;5031346;28;20210;-76
2021/12/14 02:35:51;;;;;;;22.30;17.33;;;;;;;8.59;87.07;102505.06;5029137;28;20584;-76
2021/12/14 02:38:19;;;;;;;20.77;15.87;;;;;;;8.56;87.63;102509.09;5030009;28;20182;-76
2021/12/14 02:41:01;;;;;;;23.33;17.27;;;;;;;8.57;87.09;102496.41;5029075;28;20243;-76
2021/12/14 02:44:00;;;;;;;25.10;16.80;;;;;;;8.55;87.44;102477.59;5030104;28;20241;-76
2021/12/14 02:46:35;;;;;;;23.40;16.40;;;;;;;8.59;87.57;102476.97;5028212;28;20232;-76
2021/12/14 02:49:05;;;;;;;22.60;16.63;;;;;;;8.56;87.27;102473.34;5030037;28;20205;-76
2021/12/14 02:51:37;;;;;;;26.43;19.17;;;;;;;8.54;86.50;102469.84;5030184;28;20265;-75
2021/12/14 02:54:13;;;;;;;25.63;19.20;;;;;;;8.56;87.70;102466.59;5048627;28;20235;-76
2021/12/14 02:56:43;;;;;;;24.37;17.67;;;;;;;8.59;86.83;102469.31;5048723;28;20654;-76
2021/12/14 02:59:17;;;;;;;26.63;17.93;;;;;;;8.56;87.90;102458.94;5048458;28;20190;-76
2021/12/14 03:01:45;;;;;;;26.10;17.70;;;;;;;8.53;87.79;102458.75;5047017;28;20666;-76
2021/12/14 03:04:14;;;;;;;28.87;18.60;;;;;;;8.53;87.67;102466.41;5048437;28;20704;-76
2021/12/14 03:06:46;;;;;;;29.23;18.67;;;;;;;8.51;86.83;102468.00;5048784;28;20193;-76
2021/12/14 03:12:08;;;;;;;24.23;17.47;;;;;;;8.51;87.73;102475.69;5044798;28;20199;-76
2021/12/14 03:14:34;;;;;;;24.77;17.57;;;;;;;8.50;87.68;102476.47;5028556;28;20216;-76
2021/12/14 03:17:00;;;;;;;24.13;18.13;;;;;;;8.51;87.65;102483.34;5028539;28;20587;-76
2021/12/14 03:19:26;;;;;;;24.33;17.47;;;;;;;8.51;87.20;102469.69;5028223;28;20193;-76
2021/12/14 03:21:52;;;;;;;27.83;18.00;;;;;;;8.52;87.09;102474.00;5031149;28;20174;-76
2021/12/14 03:24:19;;;;;;;27.50;18.37;;;;;;;8.51;87.79;102483.34;5048657;28;20229;-76
2021/12/14 03:26:49;;;;;;;27.33;18.13;;;;;;;8.51;87.95;102485.00;5048274;28;20189;-75
2021/12/14 03:29:27;;;;;;;25.53;18.63;;;;;;;8.50;87.39;102483.25;5047778;28;20729;-76
2021/12/14 03:31:57;;;;;;;23.00;17.80;;;;;;;8.50;86.91;102473.94;5046448;28;20244;-76
2021/12/14 03:34:38;;;;;;;24.90;17.77;;;;;;;8.48;87.16;102470.41;5048128;28;20690;-76
2021/12/14 03:37:19;;;;;;;23.77;17.70;;;;;;;8.46;87.19;102471.09;5048217;28;20185;-76
2021/12/14 03:39:57;;;;;;;25.40;18.20;;;;;;;8.50;87.35;102476.47;5049303;28;20216;-76
2021/12/14 03:42:36;;;;;;;25.57;17.80;;;;;;;8.46;87.79;102471.09;5041413;28;20674;-76
2021/12/14 03:45:26;;;;;;;25.60;18.60;;;;;;;8.47;87.36;102481.41;5028349;28;20741;-76
2021/12/14 03:47:55;;;;;;;27.20;18.60;;;;;;;8.48;86.96;102477.19;5027707;28;20198;-76
2021/12/14 03:50:29;;;;;;;24.13;17.23;;;;;;;8.46;86.67;102476.22;5028350;28;20187;-76
2021/12/14 03:52:57;;;;;;;24.40;17.53;;;;;;;8.44;86.84;102472.72;5029426;28;20221;-76
2021/12/14 03:55:28;;;;;;;26.80;18.33;;;;;;;8.43;87.36;102476.94;5028285;28;20210;-76
2021/12/14 03:57:55;;;;;;;27.37;18.60;;;;;;;8.44;87.08;102476.13;5028129;28;20181;-76
2021/12/14 04:00:30;;;;;;;25.13;18.47;;;;;;;8.45;86.94;102477.00;5032774;28;20174;-76
2021/12/14 04:02:58;;;;;;;24.77;18.40;;;;;;;8.45;86.71;102474.47;5049230;28;20795;-75
2021/12/14 04:05:41;;;;;;;27.17;19.23;;;;;;;8.41;86.54;102475.97;5047933;28;20568;-76
2021/12/14 04:08:07;;;;;;;25.30;18.30;;;;;;;8.42;86.85;102469.19;5047855;28;20193;-76
2021/12/14 04:10:35;;;;;;;26.40;18.40;;;;;;;8.41;87.05;102468.31;5043869;28;20233;-76
2021/12/14 04:13:02;;;;;;;29.97;18.73;;;;;;;8.43;86.95;102463.31;5027929;28;20206;-76
2021/12/14 04:15:28;;;;;;;26.37;18.67;;;;;;;8.43;87.19;102465.84;5028081;28;20273;-76
2021/12/14 04:17:54;;;;;;;25.70;18.43;;;;;;;8.42;86.11;102459.88;5028016;28;20774;-76
2021/12/14 04:20:28;;;;;;;25.30;18.77;;;;;;;8.41;86.33;102464.88;5030786;28;20186;-76
2021/12/14 04:22:55;;;;;;;22.53;17.70;;;;;;;8.41;86.26;102457.22;5047824;28;20202;-76
2021/12/14 04:25:27;;;;;;;25.23;18.47;;;;;;;8.40;87.19;102461.47;5049204;28;20555;-75
2021/12/14 04:27:55;;;;;;;26.10;17.70;;;;;;;8.42;86.57;102464.06;5049036;28;20175;-76
2021/12/14 04:30:25;;;;;;;22.30;17.97;;;;;;;8.39;87.22;102469.91;5046312;28;20307;-76
2021/12/14 04:32:57;;;;;;;23.83;17.97;;;;;;;8.41;87.13;102469.97;5047504;28;20212;-76
2021/12/14 04:35:23;;;;;;;26.93;17.90;;;;;;;8.40;86.79;102463.13;5048057;28;20248;-76
2021/12/14 04:37:56;;;;;;;25.00;17.93;;;;;;;8.36;87.14;102462.09;5051166;28;20264;-76
2021/12/14 04:51:53;;;;;;;23.50;16.73;;;;;;;8.37;86.83;102462.94;5050428;28;20190;-76
2021/12/14 04:51:59;;;;;;;22.83;16.77;;;;;;;8.33;86.41;102445.72;5050850;28;20228;-76
2021/12/14 04:54:40;;;;;;;25.50;17.10;;;;;;;8.31;86.54;102444.78;5050944;28;20205;-76
2021/12/14 04:57:19;;;;;;;26.63;18.60;;;;;;;8.30;86.76;102450.69;5050976;28;20188;-76
2021/12/14 04:59:47;;;;;;;21.90;16.97;;;;;;;8.30;86.08;102463.44;5050016;28;20189;-77
2021/12/14 05:02:18;;;;;;;23.50;17.70;;;;;;;8.30;86.61;102453.22;5050749;28;20602;-76
2021/12/14 05:05:01;;;;;;;25.60;18.07;;;;;;;8.28;86.11;102450.59;5050869;28;20197;-76
2021/12/14 05:10:07;;;;;;;25.37;17.40;;;;;;;8.27;86.84;102443.72;5037541;28;20178;-76
2021/12/14 05:12:36;;;;;;;22.07;16.47;;;;;;;8.25;86.95;102447.84;5030740;28;20632;-77
2021/12/14 05:15:12;;;;;;;24.10;16.43;;;;;;;8.28;85.80;102447.16;5064096;28;20223;-76
2021/12/14 05:17:46;;;;;;;21.53;17.30;;;;;;;8.25;87.11;102444.44;5030671;28;20747;-76
2021/12/14 05:20:15;;;;;;;25.57;17.67;;;;;;;8.24;86.75;102448.66;5032086;28;20210;-76
2021/12/14 05:22:44;;;;;;;23.60;17.03;;;;;;;8.23;87.08;102446.91;5030563;28;20190;-76
2021/12/14 05:25:25;;;;;;;21.87;16.87;;;;;;;8.24;86.20;102442.69;5030325;28;20208;-76
2021/12/14 05:27:58;;;;;;;23.03;17.00;;;;;;;8.20;86.52;102444.19;5030577;28;20170;-76
2021/12/14 05:30:34;;;;;;;21.57;16.30;;;;;;;8.20;85.95;102448.41;5031292;28;20193;-76
2021/12/14 05:33:16;;;;;;;21.67;16.93;;;;;;;8.16;86.06;102441.38;5030413;28;20318;-76
2021/12/14 05:35:46;;;;;;;21.87;15.70;;;;;;;8.16;86.90;102443.91;5030435;28;20673;-76
2021/12/14 05:38:28;;;;;;;21.83;16.27;;;;;;;8.15;86.17;102450.69;5034548;28;20182;-76
2021/12/14 05:43:27;;;;;;;23.83;16.10;;;;;;;8.15;86.73;102442.16;5060346;28;20799;-76
2021/12/14 05:46:20;;;;;;;21.93;16.90;;;;;;;8.16;86.57;102434.56;5044140;28;20198;-76
2021/12/14 05:48:58;;;;;;;22.43;16.23;;;;;;;8.14;86.54;102443.81;5062445;28;20235;-76
2021/12/14 05:51:24;;;;;;;22.47;16.03;;;;;;;8.13;86.43;102447.19;5037015;28;20193;-76
2021/12/14 05:53:49;;;;;;;20.63;15.77;;;;;;;8.12;86.41;102442.88;5054370;28;20216;-76
2021/12/14 05:56:21;;;;;;;21.73;16.07;;;;;;;8.12;86.66;102442.88;5049993;28;20259;-76
2021/12/14 05:58:49;;;;;;;19.83;15.90;;;;;;;8.10;86.17;102443.56;5050743;28;20226;-76
2021/12/14 06:01:19;;;;;;;23.33;16.30;;;;;;;8.11;85.49;102441.09;5060761;28;20182;-76
2021/12/14 06:04:06;;;;;;;21.00;15.03;;;;;;;8.10;85.80;102441.91;5057408;28;20201;-76
2021/12/14 06:06:40;;;;;;;21.17;16.00;;;;;;;8.10;85.69;102438.44;5069670;28;20264;-75
2021/12/14 06:09:13;;;;;;;22.53;16.13;;;;;;;8.07;85.85;102436.63;5069504;28;20547;-76
2021/12/14 06:11:49;;;;;;;22.27;16.30;;;;;;;8.07;86.42;102436.63;5069522;28;20240;-76
2021/12/14 06:14:22;;;;;;;21.93;16.70;;;;;;;8.07;85.83;102426.41;5069306;28;20212;-76
2021/12/14 06:16:50;;;;;;;19.77;15.57;;;;;;;8.06;85.64;102424.66;5069307;28;20196;-76
2021/12/14 06:19:37;;;;;;;23.60;15.90;;;;;;;8.05;86.52;102437.31;5069122;28;20672;-76
2021/12/14 06:22:08;;;;;;;23.30;15.67;;;;;;;8.04;85.99;102433.91;5069101;28;20184;-76
2021/12/14 06:24:37;;;;;;;20.23;14.93;;;;;;;8.02;86.30;102444.84;5057258;28;20213;-75
2021/12/14 06:27:08;;;;;;;20.37;15.13;;;;;;;8.06;85.93;102454.41;5058488;28;20185;-76
2021/12/14 06:29:44;;;;;;;22.80;16.33;;;;;;;8.05;86.21;102445.88;5048753;28;20193;-76
2021/12/14 06:32:22;;;;;;;20.87;16.00;;;;;;;8.04;86.32;102440.69;5050670;28;20214;-75
2021/12/14 06:34:52;;;;;;;20.13;15.60;;;;;;;8.06;85.81;102449.31;5049164;28;20213;-76
2021/12/14 06:37:29;;;;;;;21.43;16.00;;;;;;;8.06;86.07;102454.41;5049082;28;20216;-76
2021/12/14 06:40:16;;;;;;;22.10;16.90;;;;;;;8.05;87.10;102463.72;5049460;28;20568;-76
2021/12/14 06:42:59;;;;;;;24.07;16.80;;;;;;;8.08;86.29;102463.91;5054697;28;20188;-76
2021/12/14 06:45:35;;;;;;;22.87;16.40;;;;;;;8.08;85.98;102460.47;5068877;28;20285;-76
2021/12/14 06:48:07;;;;;;;22.57;16.53;;;;;;;8.07;86.33;102454.47;5068692;28;20224;-76
2021/12/14 06:50:39;;;;;;;22.70;17.07;;;;;;;8.09;86.59;102457.09;5068953;28;20545;-76
2021/12/14 06:53:11;;;;;;;22.13;16.73;;;;;;;8.10;85.71;102462.31;5068703;28;20200;-76
2021/12/14 06:56:12;;;;;;;23.10;16.63;;;;;;;8.07;86.17;102451.06;5068790;28;20200;-76
2021/12/14 06:59:10;;;;;;;24.10;16.57;;;;;;;8.08;86.75;102455.34;5068983;28;20299;-76
2021/12/14 07:01:58;;;;;;;24.23;17.57;;;;;;;8.07;86.04;102459.56;5069845;28;20724;-76
2021/12/14 07:04:27;;;;;;;25.77;16.97;;;;;;;8.04;86.11;102456.88;5068384;28;20355;-76
2021/12/14 07:06:57;;;;;;;24.27;16.87;;;;;;;8.05;87.00;102444.97;5068517;28;20188;-76
2021/12/14 07:09:28;;;;;;;25.37;17.57;;;;;;;8.00;86.45;102451.50;5068289;28;20279;-76
2021/12/14 07:12:13;;;;;;;24.07;16.97;;;;;;;8.01;87.28;102456.69;5069747;28;20215;-76
2021/12/14 07:14:43;;;;;;;22.57;17.30;;;;;;;8.01;86.51;102449.03;5069538;28;20204;-76
2021/12/14 07:17:16;;;;;;;25.67;18.00;;;;;;;8.01;86.10;102459.25;5069685;28;20231;-76
2021/12/14 07:19:56;;;;;;;26.10;17.63;;;;;;;8.00;86.71;102457.50;5069580;28;20812;-76
2021/12/14 07:22:32;;;;;;;24.70;17.27;;;;;;;8.00;87.70;102457.50;5069646;28;20180;-76
2021/12/14 07:25:22;;;;;;;24.70;17.70;;;;;;;8.01;87.00;102454.16;5069352;28;20251;-75
2021/12/14 07:27:56;;;;;;;22.23;16.97;;;;;;;8.03;86.64;102444.03;5068288;28;20177;-76
2021/12/14 07:30:26;;;;;;;26.50;17.17;;;;;;;8.02;87.34;102455.03;5069244;28;20669;-76
2021/12/14 07:32:54;;;;;;;24.13;17.13;;;;;;;8.04;86.78;102455.97;5062744;28;20181;-76
2021/12/14 07:35:34;;;;;;;25.70;17.27;;;;;;;8.05;86.54;102465.38;5049469;28;20647;-76
2021/12/14 07:38:15;;;;;;;25.17;17.47;;;;;;;8.07;86.58;102468.91;5049374;28;20631;-76
2021/12/14 07:40:45;;;;;;;24.63;17.50;;;;;;;8.08;86.92;102474.09;5049562;28;20251;-76
2021/12/14 07:43:22;;;;;;;21.93;16.93;;;;;;;8.07;86.80;102467.22;5049576;28;20205;-76
2021/12/14 07:45:54;;;;;;;23.93;17.57;;;;;;;8.09;87.22;102470.75;5049611;28;20216;-76
2021/12/14 07:48:23;;;;;;;23.27;17.10;;;;;;;8.09;87.32;102475.84;5049536;28;20200;-76
2021/12/14 07:50:52;;;;;;;24.10;17.57;;;;;;;8.08;86.75;102470.66;5049427;28;20690;-76
2021/12/14 07:53:41;;;;;;;27.13;17.37;;;;;;;8.10;87.42;102476.72;5053422;28;20751;-76
2021/12/14 07:56:20;;;;;;;22.77;16.47;;;;;;;8.09;87.20;102468.22;5067996;28;20189;-75
2021/12/14 07:58:48;;;;;;;24.43;16.73;;;;;;;8.12;87.35;102480.25;5069122;28;20581;-76
2021/12/14 08:01:13;;;;;;;23.17;17.10;;;;;;;8.14;86.94;102489.75;5069320;28;20276;-76
2021/12/14 08:03:39;;;;;;;25.47;18.10;;;;;;;8.15;87.10;102490.63;5067863;28;20318;-75
2021/12/14 08:06:10;;;;;;;23.40;17.20;;;;;;;8.17;87.10;102489.94;5069553;28;20547;-76
2021/12/14 08:14:08;;;;;;;24.77;17.60;;;;;;;8.20;86.99;102494.31;5073187;28;20282;-76
2021/12/14 08:16:53;;;;;;;26.03;18.33;;;;;;;8.20;87.35;102509.63;5073115;28;20219;-75
2021/12/14 08:19:33;;;;;;;28.33;19.77;;;;;;;8.22;87.31;102498.75;5066286;28;20190;-76
2021/12/14 08:22:27;;;;;;;28.47;19.43;;;;;;;8.23;87.93;102507.25;5050616;28;20203;-76
2021/12/14 08:24:54;;;;;;;28.03;19.77;;;;;;;8.24;87.82;102504.78;5047104;28;20225;-77
2021/12/14 08:27:22;;;;;;;28.80;19.60;;;;;;;8.22;89.52;102511.50;5052914;28;20206;-76
2021/12/14 08:29:54;;;;;;;29.60;20.57;;;;;;;8.22;89.84;102508.94;5037083;28;20247;-75
2021/12/14 08:32:24;;;;;;;31.13;20.50;;;;;;;8.22;89.72;102505.50;5032746;28;20276;-75
2021/12/14 08:34:51;;;;;;;31.53;22.83;;;;;;;8.17;90.17;102496.69;5032736;28;20218;-76
2021/12/14 08:37:26;;;;;;;31.47;21.70;;;;;;;8.19;89.83;102501.09;5031349;28;20293;-75
2021/12/14 08:40:01;;;;;;;30.93;21.57;;;;;;;8.16;90.00;102498.34;5031085;28;20194;-76
2021/12/14 08:45:30;;;;;;;31.50;21.43;;;;;;;8.15;90.28;102498.28;5041251;28;20209;-76
2021/12/14 08:47:55;;;;;;;31.60;22.10;;;;;;;8.17;91.12;102495.03;5029352;28;20225;-76
2021/12/14 08:50:21;;;;;;;32.47;23.13;;;;;;;8.16;90.67;102495.78;5048956;28;20202;-75
2021/12/14 08:52:49;;;;;;;34.50;23.70;;;;;;;8.21;90.21;102503.75;5051687;28;20186;-75
2021/12/14 08:55:15;;;;;;;34.87;23.20;;;;;;;8.20;90.13;102504.53;5052215;28;20189;-76
2021/12/14 08:57:42;;;;;;;33.10;22.27;;;;;;;8.21;89.81;102503.75;5050926;28;20284;-76
2021/12/14 09:00:17;;;;;;;35.23;21.87;;;;;;;8.24;90.73;102514.16;5051460;28;20220;-75
2021/12/14 09:02:45;;;;;;;33.00;22.53;;;;;;;8.26;90.49;102510.00;5049393;28;20182;-75
2021/12/14 09:05:19;;;;;;;38.03;23.37;;;;;;;8.25;90.06;102514.19;5050092;28;20182;-77
2021/12/14 09:07:45;;;;;;;32.30;22.87;;;;;;;8.25;89.74;102509.09;5032157;28;20686;-75
2021/12/14 09:10:19;;;;;;;35.63;23.53;;;;;;;8.26;89.72;102515.97;5031902;28;20195;-76
2021/12/14 09:12:47;;;;;;;33.40;22.37;;;;;;;8.27;89.67;102517.72;5041995;28;20287;-75
2021/12/14 09:15:20;;;;;;;34.30;23.37;;;;;;;8.29;89.44;102521.22;5051819;28;20213;-75
2021/12/14 09:17:46;;;;;;;39.83;23.70;;;;;;;8.30;90.04;102511.91;5051643;28;20247;-75
2021/12/14 09:20:23;;;;;;;37.17;24.10;;;;;;;8.30;90.16;102512.78;5050389;28;20194;-76
2021/12/14 09:22:52;;;;;;;38.27;24.07;;;;;;;8.31;90.41;102512.00;5042108;28;20223;-76
2021/12/14 09:25:24;;;;;;;37.30;24.17;;;;;;;8.34;89.89;102518.94;5051724;28;20710;-75
2021/12/14 09:27:50;;;;;;;37.53;24.07;;;;;;;8.35;90.30;102513.94;5051751;28;20182;-75
2021/12/14 09:30:19;;;;;;;39.13;24.67;;;;;;;8.39;89.65;102514.97;5051770;28;20535;-75
2021/12/14 09:32:44;;;;;;;40.93;24.50;;;;;;;8.38;90.37;102516.63;5051566;28;20213;-75
2021/12/14 09:35:16;;;;;;;41.53;27.17;;;;;;;8.43;90.20;102504.16;5051582;28;20663;-75
2021/12/14 09:37:43;;;;;;;39.27;26.03;;;;;;;8.40;90.52;102509.06;5041518;28;20201;-75
2021/12/14 09:40:14;;;;;;;40.77;26.07;;;;;;;8.39;90.38;102507.31;5046414;28;20261;-73
2021/12/14 09:42:40;;;;;;;41.87;25.87;;;;;;;8.39;91.36;102508.19;5051124;28;20177;-74
2021/12/14 09:45:16;;;;;;;43.37;26.60;;;;;;;8.41;90.57;102504.06;5051272;28;20185;-75
2021/12/14 09:47:43;;;;;;;42.90;27.60;;;;;;;8.39;91.51;102504.78;5049867;28;20622;-74
2021/12/14 09:50:13;;;;;;;44.77;28.00;;;;;;;8.40;91.75;102502.31;5050995;28;20192;-75
2021/12/14 09:52:40;;;;;;;48.23;29.40;;;;;;;8.38;92.28;102511.53;5051189;28;20209;-74
2021/12/14 09:55:10;;;;;;;46.37;28.93;;;;;;;8.38;93.46;102508.97;5050364;28;20687;-74
2021/12/14 09:57:44;;;;;;;45.00;29.47;;;;;;;8.39;92.85;102509.88;5051350;28;20189;-74
2021/12/14 10:00:27;;;;;;;49.07;28.93;;;;;;;8.45;92.85;102510.19;5050550;28;20181;-75
2021/12/14 10:02:56;;;;;;;48.87;28.73;;;;;;;8.43;92.80;102506.69;5051498;28;20174;-74
2021/12/14 10:05:37;;;;;;;45.00;28.93;;;;;;;8.42;93.03;102513.47;5050557;28;20663;-74
2021/12/14 10:08:14;;;;;;;46.67;27.13;;;;;;;8.44;92.80;102518.66;5050458;28;20712;-75
2021/12/14 10:10:40;;;;;;;56.17;27.53;;;;;;;8.45;92.46;102523.84;5050960;28;20178;-75
2021/12/14 10:13:05;;;;;;;45.37;29.10;;;;;;;8.45;92.35;102523.84;5049522;28;20258;-74
2021/12/14 10:15:37;;;;;;;44.60;28.47;;;;;;;8.44;92.02;102516.97;5050789;28;20185;-75
2021/12/14 10:18:16;;;;;;;46.53;27.93;;;;;;;8.48;91.97;102530.78;5049240;28;20181;-75
2021/12/14 10:20:48;;;;;;;44.13;27.47;;;;;;;8.43;92.11;102529.66;5050627;28;20197;-74
2021/12/14 10:23:15;;;;;;;42.30;27.40;;;;;;;8.46;91.62;102527.25;5050409;28;20217;-75
2021/12/14 10:25:41;;;;;;;43.43;28.57;;;;;;;8.43;91.48;102529.66;5050590;28;20182;-74
2021/12/14 10:28:07;;;;;;;46.97;29.73;;;;;;;8.45;91.61;102530.63;5050369;28;20265;-74
2021/12/14 10:30:39;;;;;;;47.57;31.07;;;;;;;8.47;92.39;102526.50;5050760;28;20182;-73
2021/12/14 10:33:06;;;;;;;41.30;27.83;;;;;;;8.47;91.91;102526.50;5050686;28;20256;-74
2021/12/14 10:35:39;;;;;;;46.17;28.43;;;;;;;8.47;91.12;102524.81;5048953;28;20216;-75
2021/12/14 10:38:15;;;;;;;44.07;28.40;;;;;;;8.46;91.49;102525.59;5050146;28;20189;-74
2021/12/14 10:43:29;;;;;;;46.30;29.13;;;;;;;8.50;92.43;102519.88;5050150;28;20687;-74
2021/12/14 10:45:58;;;;;;;43.77;28.33;;;;;;;8.50;91.80;102524.97;5050108;28;20315;-74
2021/12/14 10:48:29;;;;;;;44.87;29.40;;;;;;;8.50;91.55;102519.88;5049741;28;20631;-74
2021/12/14 10:50:59;;;;;;;42.70;28.53;;;;;;;8.49;91.33;102527.44;5029835;28;20730;-74
2021/12/14 10:53:25;;;;;;;43.83;29.57;;;;;;;8.46;91.40;102520.50;5029913;28;20325;-75
2021/12/14 10:55:55;;;;;;;45.10;30.47;;;;;;;8.46;92.39;102522.16;5030005;28;20198;-75
2021/12/14 10:58:23;;;;;;;44.90;29.70;;;;;;;8.46;92.31;102524.72;5030092;28;20189;-74
2021/12/14 11:01:02;;;;;;;42.20;29.43;;;;;;;8.48;92.51;102526.53;5030036;28;20576;-74
2021/12/14 11:03:36;;;;;;;48.63;30.63;;;;;;;8.45;92.89;102526.41;5030156;28;20249;-75
2021/12/14 11:06:10;;;;;;;45.90;29.30;;;;;;;8.44;92.77;102521.22;5029832;28;20194;-75
2021/12/14 11:08:57;;;;;;;46.10;29.37;;;;;;;8.45;93.61;102521.31;5029466;28;20551;-75
2021/12/14 11:11:37;;;;;;;47.47;30.43;;;;;;;8.48;93.83;102520.59;5028333;28;20206;-75
2021/12/14 11:14:08;;;;;;;48.50;31.93;;;;;;;8.48;93.27;102520.59;5029693;28;20252;-75
2021/12/14 11:19:41;;;;;;;50.63;31.57;;;;;;;8.49;94.72;102523.22;5029579;28;20190;-75
2021/12/14 11:22:43;;;;;;;50.57;33.10;;;;;;;8.53;93.55;102539.59;5029646;28;20190;-75
2021/12/14 11:25:20;;;;;;;50.67;32.80;;;;;;;8.50;94.36;102539.41;5027357;28;20755;-75
2021/12/14 11:27:58;;;;;;;51.70;34.17;;;;;;;8.49;93.62;102532.53;5029564;28;20190;-75
2021/12/14 11:30:53;;;;;;;53.17;34.67;;;;;;;8.48;93.40;102539.31;5028148;28;20625;-75
2021/12/14 11:33:39;;;;;;;54.37;33.67;;;;;;;8.42;93.94;102528.78;5047538;28;20296;-75
2021/12/14 11:36:15;;;;;;;54.23;33.83;;;;;;;8.43;94.36;102534.78;5049526;28;20186;-75
2021/12/14 11:38:48;;;;;;;52.13;33.83;;;;;;;8.42;93.67;102525.34;5049249;28;20189;-74
2021/12/14 11:41:34;;;;;;;58.90;35.53;;;;;;;8.39;94.49;102526.03;5049651;28;20224;-75
2021/12/14 11:44:11;;;;;;;56.97;35.33;;;;;;;8.41;94.85;102532.13;5049138;28;20225;-75
2021/12/14 11:46:51;;;;;;;57.07;35.77;;;;;;;8.43;94.40;102535.63;5047589;28;20200;-75
2021/12/14 11:49:17;;;;;;;52.90;33.50;;;;;;;8.47;94.92;102541.81;5040321;28;20244;-76
2021/12/14 11:51:43;;;;;;;50.90;34.70;;;;;;;8.49;93.63;102545.31;5049136;28;20239;-75
2021/12/14 11:54:09;;;;;;;51.77;33.10;;;;;;;8.49;94.63;102555.53;5049233;28;20312;-75
2021/12/14 11:56:34;;;;;;;53.50;31.87;;;;;;;8.57;93.47;102551.72;5048693;28;20281;-75
2021/12/14 11:59:06;;;;;;;51.17;32.03;;;;;;;8.67;93.29;102562.50;5047658;28;20654;-75
2021/12/14 12:01:49;;;;;;;53.30;34.00;;;;;;;8.69;93.67;102560.91;5049157;28;20225;-75
2021/12/14 12:04:19;;;;;;;50.07;31.97;;;;;;;8.73;93.25;102567.97;5048951;28;20240;-75
2021/12/14 12:09:37;;;;;;;48.00;30.37;;;;;;;8.81;93.43;102570.91;5048708;28;20193;-75
2021/12/14 12:12:02;;;;;;;47.97;31.43;;;;;;;8.82;93.04;102570.13;5048275;28;20568;-76
2021/12/14 12:14:46;;;;;;;47.63;31.23;;;;;;;8.84;93.55;102571.09;5048686;28;20305;-75
2021/12/14 12:17:22;;;;;;;50.30;31.50;;;;;;;8.84;93.17;102568.53;5049175;28;20268;-76
2021/12/14 12:19:59;;;;;;;47.17;30.67;;;;;;;8.85;92.74;102570.28;5047503;28;20251;-76
2021/12/14 12:22:30;;;;;;;44.73;29.20;;;;;;;8.80;93.21;102570.03;5049260;28;20181;-77
2021/12/14 12:24:58;;;;;;;50.83;31.43;;;;;;;8.81;93.28;102563.25;5048082;28;20229;-76
2021/12/14 12:27:30;;;;;;;45.77;30.77;;;;;;;8.77;93.79;102551.13;5049478;28;20232;-76